TimeCST,TemperatureF,Dew PointF,Humidity,Sea Level PressureIn,VisibilityMPH,Wind Direction,Wind SpeedMPH,Gust SpeedMPH,PrecipitationIn,Events,Conditions,WindDirDegrees,DateUTC
12:35 AM,30.2,23.0,75,29.97,10.0,ESE,6.9,-,N/A,,Clear,110,2013-02-24 06:35:00
12:55 AM,30.2,21.2,69,29.97,10.0,East,6.9,-,N/A,,Clear,100,2013-02-24 06:55:00
1:15 AM,30.2,23.0,75,29.97,10.0,East,8.1,-,N/A,,Clear,100,2013-02-24 07:15:00
1:35 AM,28.4,23.0,80,29.97,10.0,ESE,8.1,-,N/A,,Clear,110,2013-02-24 07:35:00
1:55 AM,30.2,23.0,75,29.97,10.0,ESE,8.1,-,N/A,,Clear,120,2013-02-24 07:55:00
2:15 AM,30.2,23.0,75,29.96,10.0,ESE,9.2,-,N/A,,Clear,110,2013-02-24 08:15:00
2:35 AM,30.2,23.0,75,29.95,10.0,ESE,8.1,-,N/A,,Clear,110,2013-02-24 08:35:00
2:55 AM,30.2,23.0,75,29.95,10.0,ESE,8.1,-,N/A,,Clear,110,2013-02-24 08:55:00
3:15 AM,30.2,23.0,75,29.94,10.0,ESE,8.1,-,N/A,,Clear,110,2013-02-24 09:15:00
3:35 AM,30.2,23.0,75,29.93,10.0,East,9.2,-,N/A,,Clear,100,2013-02-24 09:35:00
3:55 AM,30.2,23.0,75,29.94,10.0,ESE,8.1,-,N/A,,Clear,110,2013-02-24 09:55:00
4:15 AM,30.2,23.0,75,29.93,10.0,ESE,10.4,-,N/A,,Clear,110,2013-02-24 10:15:00
4:35 AM,30.2,23.0,75,29.93,10.0,ESE,10.4,-,N/A,,Clear,120,2013-02-24 10:35:00
4:55 AM,30.2,23.0,75,29.93,10.0,ESE,9.2,-,N/A,,Clear,120,2013-02-24 10:55:00
5:15 AM,30.2,23.0,75,29.94,10.0,ESE,8.1,-,N/A,,Clear,120,2013-02-24 11:15:00
5:35 AM,30.2,23.0,75,29.95,10.0,SE,6.9,-,N/A,,Clear,130,2013-02-24 11:35:00
5:55 AM,30.2,23.0,75,29.96,10.0,ESE,9.2,-,N/A,,Clear,120,2013-02-24 11:55:00
6:15 AM,30.2,23.0,75,29.95,10.0,ESE,9.2,-,N/A,,Clear,110,2013-02-24 12:15:00
6:35 AM,30.2,23.0,75,29.94,10.0,ESE,11.5,-,N/A,,Clear,110,2013-02-24 12:35:00
6:55 AM,30.2,23.0,75,29.94,10.0,ESE,10.4,-,N/A,,Clear,110,2013-02-24 12:55:00
7:15 AM,30.2,24.8,80,29.95,10.0,ESE,11.5,-,N/A,,Clear,110,2013-02-24 13:15:00
7:35 AM,32.0,24.8,75,29.94,10.0,ESE,11.5,-,N/A,,Clear,110,2013-02-24 13:35:00
7:55 AM,32.0,26.6,80,29.95,10.0,ESE,11.5,-,N/A,,Clear,110,2013-02-24 13:55:00
8:15 AM,32.0,26.6,80,29.96,10.0,ESE,12.7,-,N/A,,Clear,110,2013-02-24 14:15:00
8:35 AM,33.8,26.6,75,29.97,10.0,ESE,9.2,-,N/A,,Clear,120,2013-02-24 14:35:00
8:55 AM,33.8,28.4,81,29.98,10.0,ESE,10.4,-,N/A,,Clear,110,2013-02-24 14:55:00
9:15 AM,35.6,28.4,75,29.98,10.0,ESE,9.2,-,N/A,,Clear,110,2013-02-24 15:15:00
9:35 AM,37.4,30.2,75,29.99,10.0,ESE,9.2,-,N/A,,Clear,120,2013-02-24 15:35:00
9:55 AM,37.4,32.0,81,29.98,10.0,ESE,9.2,-,N/A,,Clear,120,2013-02-24 15:55:00
10:15 AM,41.0,32.0,70,29.99,10.0,SE,9.2,-,N/A,,Clear,130,2013-02-24 16:15:00
10:35 AM,42.8,32.0,66,29.99,10.0,SE,8.1,-,N/A,,Clear,130,2013-02-24 16:35:00
10:55 AM,44.6,32.0,61,29.99,10.0,SE,9.2,-,N/A,,Clear,130,2013-02-24 16:55:00
11:15 AM,44.6,33.8,66,29.99,10.0,SE,10.4,-,N/A,,Clear,140,2013-02-24 17:15:00
11:35 AM,46.4,33.8,62,29.98,10.0,SSE,10.4,-,N/A,,Clear,150,2013-02-24 17:35:00
11:55 AM,46.4,33.8,62,29.96,10.0,SE,9.2,16.1,N/A,,Clear,130,2013-02-24 17:55:00
12:15 PM,48.2,33.8,58,29.96,10.0,ESE,10.4,17.3,N/A,,Clear,120,2013-02-24 18:15:00
12:35 PM,50.0,33.8,54,29.94,10.0,SE,11.5,-,N/A,,Clear,130,2013-02-24 18:35:00
12:55 PM,50.0,33.8,54,29.93,10.0,SE,10.4,-,N/A,,Clear,130,2013-02-24 18:55:00
1:15 PM,50.0,33.8,54,29.92,10.0,ESE,10.4,16.1,N/A,,Clear,110,2013-02-24 19:15:00
1:35 PM,51.8,33.8,50,29.91,10.0,ESE,11.5,-,N/A,,Clear,120,2013-02-24 19:35:00
1:55 PM,51.8,33.8,50,29.90,10.0,ESE,9.2,-,N/A,,Clear,120,2013-02-24 19:55:00
2:15 PM,51.8,33.8,50,29.89,10.0,SE,13.8,-,N/A,,Clear,140,2013-02-24 20:15:00
2:35 PM,51.8,33.8,50,29.89,10.0,SE,10.4,-,N/A,,Clear,140,2013-02-24 20:35:00
2:55 PM,53.6,33.8,47,29.89,10.0,SE,8.1,-,N/A,,Clear,140,2013-02-24 20:55:00
3:15 PM,53.6,33.8,47,29.87,10.0,ESE,11.5,-,N/A,,Clear,120,2013-02-24 21:15:00
3:35 PM,53.6,33.8,47,29.86,10.0,ESE,12.7,18.4,N/A,,Clear,120,2013-02-24 21:35:00
3:55 PM,53.6,33.8,47,29.86,10.0,SE,12.7,17.3,N/A,,Clear,130,2013-02-24 21:55:00
4:15 PM,53.6,33.8,47,29.86,10.0,SE,13.8,-,N/A,,Clear,130,2013-02-24 22:15:00
4:35 PM,53.6,33.8,47,29.84,10.0,ESE,15.0,-,N/A,,Clear,110,2013-02-24 22:35:00
4:55 PM,51.8,33.8,50,29.84,10.0,ESE,12.7,-,N/A,,Clear,110,2013-02-24 22:55:00
5:15 PM,51.8,33.8,50,29.84,10.0,ESE,11.5,16.1,N/A,,Clear,110,2013-02-24 23:15:00
5:35 PM,50.0,32.0,50,29.84,10.0,ESE,12.7,20.7,N/A,,Clear,120,2013-02-24 23:35:00
5:55 PM,48.2,32.0,54,29.84,10.0,ESE,11.5,16.1,N/A,,Clear,110,2013-02-24 23:55:00
6:15 PM,46.4,32.0,57,29.85,10.0,East,10.4,-,N/A,,Clear,100,2013-02-25 00:15:00
6:35 PM,46.4,32.0,57,29.84,10.0,East,9.2,-,N/A,,Clear,90,2013-02-25 00:35:00
6:55 PM,44.6,32.0,61,29.84,10.0,East,10.4,-,N/A,,Clear,90,2013-02-25 00:55:00
7:15 PM,44.6,32.0,61,29.83,10.0,East,13.8,17.3,N/A,,Clear,100,2013-02-25 01:15:00
7:35 PM,44.6,32.0,61,29.83,10.0,ESE,15.0,20.7,N/A,,Clear,110,2013-02-25 01:35:00
7:55 PM,44.6,32.0,61,29.83,10.0,ESE,15.0,20.7,N/A,,Clear,110,2013-02-25 01:55:00
8:15 PM,44.6,32.0,61,29.83,10.0,ESE,15.0,21.9,N/A,,Clear,110,2013-02-25 02:15:00
8:35 PM,44.6,32.0,61,29.84,10.0,ESE,15.0,21.9,N/A,,Clear,110,2013-02-25 02:35:00
8:55 PM,42.8,32.0,66,29.85,10.0,ESE,12.7,19.6,N/A,,Clear,120,2013-02-25 02:55:00
9:15 PM,42.8,32.0,66,29.86,10.0,ESE,10.4,-,N/A,,Clear,120,2013-02-25 03:15:00
9:35 PM,41.0,32.0,70,29.87,10.0,SE,9.2,-,N/A,,Clear,130,2013-02-25 03:35:00
9:55 PM,41.0,32.0,70,29.88,10.0,SE,9.2,-,N/A,,Clear,130,2013-02-25 03:55:00
10:15 PM,41.0,32.0,70,29.89,10.0,ESE,8.1,-,N/A,,Clear,120,2013-02-25 04:15:00
10:35 PM,41.0,32.0,70,29.89,10.0,ESE,8.1,-,N/A,,Clear,110,2013-02-25 04:35:00
10:55 PM,39.2,32.0,75,29.87,10.0,East,6.9,-,N/A,,Clear,90,2013-02-25 04:55:00
11:15 PM,39.2,32.0,75,29.86,10.0,East,9.2,-,N/A,,Clear,90,2013-02-25 05:15:00
11:35 PM,37.4,32.0,81,29.87,10.0,East,6.9,-,N/A,,Clear,100,2013-02-25 05:35:00
11:55 PM,37.4,32.0,81,29.88,10.0,East,5.8,-,N/A,,Clear,90,2013-02-25 05:55:00